createdAt,value
2019-05-10T00:03:08.253Z,53.60
2019-05-10T00:08:31.261Z,53.60
2019-05-10T00:13:39.575Z,54.00
2019-05-10T00:18:44.521Z,53.50
2019-05-10T00:23:51.349Z,53.50
2019-05-10T00:28:57.757Z,53.50
2019-05-10T00:34:03.516Z,53.50
2019-05-10T00:39:09.253Z,53.40
2019-05-10T00:44:17.597Z,53.50
2019-05-10T00:49:23.623Z,53.40
2019-05-10T00:54:29.414Z,53.40
2019-05-10T00:59:35.032Z,53.40
2019-05-10T01:04:40.392Z,53.40
2019-05-10T01:09:46.182Z,54.00
2019-05-10T01:14:51.582Z,53.40
2019-05-10T01:19:57.784Z,53.40
2019-05-10T01:25:03.490Z,53.20
2019-05-10T01:30:08.723Z,53.20
2019-05-10T01:35:14.602Z,53.30
2019-05-10T01:40:20.747Z,53.40
2019-05-10T01:45:25.973Z,53.40
2019-05-10T01:50:32.063Z,53.30
2019-05-10T01:55:50.702Z,53.40
2019-05-10T02:00:43.813Z,53.40
2019-05-10T02:05:49.264Z,53.50
2019-05-10T02:10:54.562Z,53.50
2019-05-10T02:16:00.301Z,53.40
2019-05-10T02:21:06.480Z,53.50
2019-05-10T02:26:12.698Z,53.40
2019-05-10T02:31:21.626Z,53.30
2019-05-10T02:36:27.076Z,53.30
2019-05-10T02:41:32.996Z,53.30
2019-05-10T02:46:38.321Z,53.30
2019-05-10T02:51:44.992Z,53.20
2019-05-10T02:56:53.363Z,53.30
2019-05-10T03:02:01.134Z,53.30
2019-05-10T03:07:08.012Z,53.30
2019-05-10T03:12:25.038Z,53.30
2019-05-10T03:17:30.632Z,53.20
2019-05-10T03:22:42.400Z,53.20
2019-05-10T03:27:48.143Z,53.20
2019-05-10T03:32:53.740Z,53.20
2019-05-10T03:37:59.667Z,53.20
2019-05-10T03:43:07.465Z,53.20
2019-05-10T03:48:15.704Z,53.20
2019-05-10T03:53:22.467Z,53.20
2019-05-10T03:58:27.629Z,53.20
2019-05-10T04:03:34.357Z,53.30
2019-05-10T04:08:40.167Z,53.30
2019-05-10T04:13:46.618Z,53.20
2019-05-10T04:18:52.535Z,53.80
2019-05-10T04:23:58.858Z,53.30
2019-05-10T04:29:05.361Z,53.30
2019-05-10T04:34:11.634Z,53.30
2019-05-10T04:39:17.833Z,53.30
2019-05-10T04:44:23.194Z,53.40
2019-05-10T04:49:28.975Z,53.50
2019-05-10T04:54:35.954Z,53.50
2019-05-10T04:59:41.151Z,53.50
2019-05-10T05:04:46.266Z,53.50
2019-05-10T05:09:52.432Z,53.50
2019-05-10T05:14:57.945Z,53.50
2019-05-10T05:20:03.951Z,53.50
2019-05-10T05:25:10.144Z,53.60
2019-05-10T05:30:16.127Z,53.50
2019-05-10T05:35:22.000Z,53.60
2019-05-10T05:40:27.746Z,53.60
2019-05-10T05:45:35.606Z,53.70
2019-05-10T05:50:42.905Z,53.70
2019-05-10T05:55:49.865Z,53.70
2019-05-10T06:00:55.883Z,53.80
2019-05-10T06:06:02.265Z,53.70
2019-05-10T06:11:09.304Z,53.80
2019-05-10T06:16:14.993Z,53.80
2019-05-10T06:21:25.240Z,53.70
2019-05-10T06:26:29.569Z,53.80
2019-05-10T06:31:35.373Z,53.90
2019-05-10T06:36:41.052Z,53.90
2019-05-10T06:41:49.958Z,54.00
2019-05-10T06:46:53.716Z,54.00
2019-05-10T06:52:00.038Z,54.00
2019-05-10T06:57:05.451Z,54.00
2019-05-10T07:02:12.375Z,54.00
2019-05-10T07:07:33.096Z,54.10
2019-05-10T07:12:24.887Z,54.10
2019-05-10T07:17:30.697Z,54.00
2019-05-10T07:22:37.513Z,53.90
2019-05-10T07:27:44.255Z,54.00
2019-05-10T07:32:54.617Z,53.90
2019-05-10T07:37:59.403Z,53.90
2019-05-10T07:43:05.072Z,53.70
2019-05-10T07:48:12.606Z,53.60
2019-05-10T07:53:22.876Z,53.60
2019-05-10T07:58:27.649Z,53.60
2019-05-10T08:03:35.617Z,53.60
2019-05-10T08:08:40.079Z,53.50
2019-05-10T08:13:45.871Z,54.10
2019-05-10T08:18:55.821Z,53.60
2019-05-10T08:24:04.369Z,53.60
2019-05-10T08:29:07.859Z,53.50
2019-05-10T08:34:15.275Z,53.60
2019-05-10T08:39:22.373Z,53.60
2019-05-10T08:44:28.005Z,53.50
2019-05-10T08:49:43.719Z,53.70
2019-05-10T08:54:42.398Z,53.60
2019-05-10T08:59:54.103Z,53.60
2019-05-10T09:04:56.448Z,53.50
2019-05-10T09:10:02.440Z,53.50
2019-05-10T09:15:10.155Z,53.40
2019-05-10T09:20:20.639Z,53.10
2019-05-10T09:25:29.221Z,53.10
2019-05-10T09:30:35.609Z,53.10
2019-05-10T09:35:46.809Z,52.90
2019-05-10T09:40:52.762Z,53.00
2019-05-10T09:45:54.259Z,53.10
2019-05-10T09:51:03.426Z,53.20
2019-05-10T09:56:07.942Z,53.20
2019-05-10T10:01:20.603Z,53.10
2019-05-10T10:06:22.197Z,53.10
2019-05-10T10:11:27.810Z,53.00
2019-05-10T10:16:35.512Z,53.00
2019-05-10T10:21:42.358Z,53.00
2019-05-10T10:26:48.217Z,53.00
2019-05-10T10:31:58.316Z,53.00
2019-05-10T10:37:00.987Z,52.90
2019-05-10T10:42:08.819Z,52.80
2019-05-10T10:47:14.001Z,52.80
2019-05-10T10:52:19.209Z,52.70
2019-05-10T10:57:27.815Z,52.70
2019-05-10T11:02:34.285Z,52.50
2019-05-10T11:07:44.346Z,52.50
2019-05-10T11:12:47.606Z,52.30
2019-05-10T11:17:52.766Z,52.30
2019-05-10T11:22:58.398Z,52.40
2019-05-10T11:28:04.490Z,52.70
2019-05-10T11:33:23.887Z,52.60
2019-05-10T11:38:18.334Z,52.60
2019-05-10T11:43:26.918Z,52.60
2019-05-10T11:48:37.298Z,52.40
2019-05-10T11:53:41.357Z,52.50
2019-05-10T11:58:55.051Z,52.50
2019-05-10T12:03:54.533Z,52.50
2019-05-10T12:09:03.866Z,52.50
2019-05-10T12:14:07.569Z,52.60
2019-05-10T12:19:19.809Z,52.50
2019-05-10T12:24:39.390Z,52.60
2019-05-10T12:29:31.553Z,52.50
2019-05-10T12:34:37.741Z,52.50
2019-05-10T12:39:43.696Z,52.50
2019-05-10T12:44:51.604Z,52.50
2019-05-10T12:50:01.941Z,52.40
2019-05-10T12:55:02.868Z,52.60
2019-05-10T13:00:13.087Z,52.60
2019-05-10T13:05:17.684Z,52.50
2019-05-10T13:10:24.019Z,52.70
2019-05-10T13:15:33.470Z,52.90
2019-05-10T13:20:39.308Z,53.10
2019-05-10T13:25:45.586Z,53.20
2019-05-10T13:30:51.856Z,53.30
2019-05-10T13:35:58.594Z,53.40
2019-05-10T13:41:04.851Z,53.50
2019-05-10T13:46:10.378Z,53.50
2019-05-10T13:51:16.955Z,53.50
2019-05-10T13:56:22.342Z,53.70
2019-05-10T14:01:28.349Z,53.50
2019-05-10T14:06:34.340Z,53.40
2019-05-10T14:11:42.704Z,53.40
2019-05-10T14:16:48.818Z,53.30
2019-05-10T14:21:55.122Z,53.30
2019-05-10T14:27:01.791Z,53.30
2019-05-10T14:32:08.162Z,53.10
2019-05-10T14:37:14.388Z,53.20
2019-05-10T14:42:23.929Z,53.00
2019-05-10T14:47:28.363Z,53.00
2019-05-10T14:52:34.385Z,52.90
2019-05-10T14:57:41.243Z,52.70
2019-05-10T15:02:47.507Z,52.80
2019-05-10T15:07:53.393Z,52.60
2019-05-10T15:12:59.423Z,52.70
2019-05-10T15:18:06.064Z,52.80
2019-05-10T15:23:11.608Z,52.50
2019-05-10T15:28:17.014Z,52.50
2019-05-10T15:33:23.250Z,53.00
2019-05-10T15:38:30.061Z,53.20
2019-05-10T15:43:35.926Z,53.40
2019-05-10T15:48:43.368Z,53.60
2019-05-10T15:53:49.226Z,53.80
2019-05-10T15:58:55.510Z,53.90
2019-05-10T16:04:01.632Z,53.90
2019-05-10T16:09:17.100Z,53.80
2019-05-10T16:14:14.966Z,53.70
2019-05-10T16:19:20.501Z,53.80
2019-05-10T16:24:28.060Z,53.70
2019-05-10T16:29:39.702Z,53.80
2019-05-10T16:34:41.964Z,53.90
2019-05-10T16:39:47.888Z,53.70
2019-05-10T16:44:53.798Z,53.70
2019-05-10T16:49:59.684Z,53.70
2019-05-10T16:55:09.626Z,53.60
2019-05-10T17:00:14.421Z,53.70
2019-05-10T17:05:20.799Z,53.80
2019-05-10T17:10:26.835Z,53.90
2019-05-10T17:15:39.584Z,53.90
2019-05-10T17:20:45.522Z,54.00
2019-05-10T17:25:49.069Z,54.00
2019-05-10T17:30:59.960Z,53.90
2019-05-10T17:36:08.547Z,53.90
2019-05-10T17:41:11.225Z,53.90
2019-05-10T17:46:18.650Z,53.90
2019-05-10T17:51:24.168Z,54.00
2019-05-10T17:56:32.730Z,53.90
2019-05-10T18:01:37.789Z,54.10
2019-05-10T18:06:44.561Z,54.20
2019-05-10T18:11:50.280Z,54.20
2019-05-10T18:16:55.008Z,54.20
2019-05-10T18:22:05.782Z,54.20
2019-05-10T18:27:08.082Z,54.20
2019-05-10T18:32:13.204Z,54.10
2019-05-10T18:37:21.848Z,54.20
2019-05-10T18:42:28.101Z,54.20
2019-05-10T18:47:36.359Z,54.30
2019-05-10T18:52:43.767Z,54.30
2019-05-10T18:57:52.613Z,54.30
2019-05-10T19:02:57.767Z,54.30
2019-05-10T19:08:11.556Z,54.30
2019-05-10T19:13:18.631Z,54.20
2019-05-10T19:18:25.648Z,54.30
2019-05-10T19:23:32.000Z,54.20
2019-05-10T19:28:41.806Z,54.30
2019-05-10T19:33:47.334Z,54.20
2019-05-10T19:38:52.929Z,54.30
2019-05-10T19:44:04.645Z,54.30
2019-05-10T19:49:13.304Z,54.30
2019-05-10T19:54:21.084Z,54.20
2019-05-10T19:59:25.830Z,54.10
2019-05-10T20:04:32.668Z,54.20
2019-05-10T20:09:38.823Z,54.10
2019-05-10T20:14:45.590Z,54.10
2019-05-10T20:19:51.577Z,54.10
2019-05-10T20:24:56.837Z,54.00
2019-05-10T20:30:03.128Z,54.10
2019-05-10T20:35:09.014Z,54.00
2019-05-10T20:40:15.357Z,54.00
2019-05-10T20:45:21.678Z,53.90
2019-05-10T20:50:29.235Z,53.90
2019-05-10T20:55:36.590Z,53.90
2019-05-10T21:00:43.054Z,53.80
2019-05-10T21:05:49.296Z,53.80
2019-05-10T21:10:55.464Z,53.80
2019-05-10T21:16:02.222Z,53.70
2019-05-10T21:21:08.118Z,53.70
2019-05-10T21:26:15.105Z,53.70
2019-05-10T21:31:23.479Z,53.70
2019-05-10T21:36:29.797Z,53.70
2019-05-10T21:41:36.232Z,53.70
2019-05-10T21:46:42.142Z,53.70
2019-05-10T21:51:50.807Z,53.60
2019-05-10T21:56:58.086Z,53.60
2019-05-10T22:02:04.523Z,53.60
2019-05-10T22:07:12.280Z,53.50
2019-05-10T22:12:18.231Z,53.50
2019-05-10T22:17:24.687Z,53.50
2019-05-10T22:22:30.546Z,53.60
2019-05-10T22:27:35.740Z,53.50
2019-05-10T22:32:42.816Z,53.50
2019-05-10T22:37:48.301Z,53.60
2019-05-10T22:42:55.490Z,53.60
2019-05-10T22:48:01.373Z,53.60
2019-05-10T22:53:09.177Z,53.60
2019-05-10T22:58:14.916Z,53.70
2019-05-10T23:03:24.289Z,53.60
2019-05-10T23:08:28.519Z,53.60
2019-05-10T23:13:34.282Z,53.60
2019-05-10T23:18:40.962Z,53.60
2019-05-10T23:23:48.674Z,53.60
2019-05-10T23:28:54.454Z,53.60
2019-05-10T23:34:00.685Z,53.60
2019-05-10T23:39:09.294Z,53.60
2019-05-10T23:44:15.389Z,53.60
2019-05-10T23:49:22.910Z,53.70
2019-05-10T23:54:27.285Z,53.60
2019-05-10T23:59:33.647Z,53.60
